createdAt,value
2023-04-05T00:00:55.027Z,60434.72
2023-04-05T00:03:23.077Z,60434.72
2023-04-05T00:05:54.650Z,97528.50
2023-04-05T00:08:26.770Z,97510.81
2023-04-05T00:10:54.973Z,60434.72
2023-04-05T00:13:22.842Z,60434.72
2023-04-05T00:15:50.936Z,60434.72
2023-04-05T00:18:23.905Z,97517.91
2023-04-05T00:20:53.511Z,97519.69
2023-04-05T00:23:22.718Z,97521.44
2023-04-05T00:25:50.430Z,97523.28
2023-04-05T00:28:18.318Z,97513.09
2023-04-05T00:30:45.957Z,60434.72
2023-04-05T00:33:14.176Z,97517.91
2023-04-05T00:35:41.778Z,97512.16
2023-04-05T00:38:10.720Z,97498.63
2023-04-05T00:40:38.312Z,97503.78
2023-04-05T00:43:05.942Z,97506.69
2023-04-05T00:45:33.630Z,97502.78
2023-04-05T00:48:01.721Z,97501.44
2023-04-05T00:50:31.017Z,97494.88
2023-04-05T00:52:59.092Z,97497.63
2023-04-05T00:55:28.467Z,97496.72
2023-04-05T00:57:56.299Z,97490.50
2023-04-05T01:00:24.503Z,97488.94
2023-04-05T01:02:53.971Z,97488.19
2023-04-05T01:05:34.933Z,97492.19
2023-04-05T01:08:14.221Z,97474.69
2023-04-05T01:10:46.070Z,97488.78
2023-04-05T01:13:13.722Z,97481.81
2023-04-05T01:15:42.349Z,60434.72
2023-04-05T01:18:11.224Z,97475.31
2023-04-05T01:20:44.804Z,97476.16
2023-04-05T01:23:33.652Z,97472.16
2023-04-05T01:26:26.185Z,97437.06
2023-04-05T01:29:01.125Z,97463.84
2023-04-05T01:31:33.943Z,97467.88
2023-04-05T01:34:07.876Z,97460.25
2023-04-05T01:36:41.804Z,97463.19
2023-04-05T01:39:10.625Z,97468.03
2023-04-05T01:41:39.640Z,97459.63
2023-04-05T01:44:07.287Z,60434.72
2023-04-05T01:46:36.620Z,60434.72
2023-04-05T01:49:04.314Z,97450.53
2023-04-05T01:51:32.279Z,97462.38
2023-04-05T01:54:00.561Z,97458.03
2023-04-05T01:56:28.139Z,97459.03
2023-04-05T01:58:55.732Z,97457.09
2023-04-05T02:01:23.413Z,97464.28
2023-04-05T02:03:52.512Z,97453.63
2023-04-05T02:06:20.183Z,97460.47
2023-04-05T02:08:47.801Z,97457.72
2023-04-05T02:11:15.373Z,97440.28
2023-04-05T02:13:42.983Z,97457.06
2023-04-05T02:16:10.571Z,97460.00
2023-04-05T02:18:38.725Z,97453.03
2023-04-05T02:21:10.670Z,97453.56
2023-04-05T02:23:38.742Z,97455.47
2023-04-05T02:26:06.497Z,97445.47
2023-04-05T02:28:34.424Z,97443.91
2023-04-05T02:31:01.997Z,97447.47
2023-04-05T02:33:29.812Z,97448.91
2023-04-05T02:35:57.468Z,60434.72
2023-04-05T02:38:26.723Z,97454.09
2023-04-05T02:40:55.395Z,97449.81
2023-04-05T02:43:22.961Z,97447.25
2023-04-05T02:45:50.564Z,60434.72
2023-04-05T02:48:18.176Z,60434.72
2023-04-05T02:50:48.866Z,97451.81
2023-04-05T02:53:16.416Z,97449.28
2023-04-05T02:55:45.379Z,97448.53
2023-04-05T02:58:14.284Z,97447.94
2023-04-05T03:00:42.267Z,60434.72
2023-04-05T03:03:10.517Z,97451.22
2023-04-05T03:05:38.380Z,97448.81
2023-04-05T03:08:06.280Z,97446.13
2023-04-05T03:10:36.132Z,97443.69
2023-04-05T03:13:05.167Z,97440.69
2023-04-05T03:15:33.777Z,97440.53
2023-04-05T03:18:01.437Z,97437.69
2023-04-05T03:20:29.101Z,97434.25
2023-04-05T03:22:56.760Z,60434.72
2023-04-05T03:25:25.623Z,97441.56
2023-04-05T03:27:53.864Z,97439.97
2023-04-05T03:30:23.160Z,97444.22
2023-04-05T03:32:50.824Z,97445.81
2023-04-05T03:35:19.322Z,97443.47
2023-04-05T03:37:47.070Z,60434.72
2023-04-05T03:40:15.016Z,60434.72
2023-04-05T03:42:44.439Z,60434.72
2023-04-05T03:45:12.472Z,60434.72
2023-04-05T03:47:41.478Z,60434.72
2023-04-05T03:50:09.868Z,60434.72
2023-04-05T03:52:37.552Z,60434.72
2023-04-05T03:55:05.792Z,60434.72
2023-04-05T03:57:33.399Z,60434.72
2023-04-05T04:00:00.968Z,60434.72
2023-04-05T04:02:28.596Z,60434.72
2023-04-05T04:04:57.809Z,60434.72
2023-04-05T04:07:26.694Z,60434.72
2023-04-05T04:09:55.400Z,60434.72
2023-04-05T04:12:23.149Z,60434.72
2023-04-05T04:14:50.814Z,60434.72
2023-04-05T04:17:27.694Z,60434.72
2023-04-05T04:19:57.180Z,60434.72
2023-04-05T04:22:26.735Z,60434.72
2023-04-05T04:24:54.698Z,60434.72
2023-04-05T04:27:22.678Z,60434.72
2023-04-05T04:29:50.324Z,60434.72
2023-04-05T04:32:26.579Z,60434.72
2023-04-05T04:34:55.904Z,60434.72
2023-04-05T04:37:30.134Z,60434.72
2023-04-05T04:40:06.456Z,60434.72
2023-04-05T04:42:38.827Z,60434.72
2023-04-05T04:45:07.344Z,60434.72
2023-04-05T04:47:34.979Z,60434.72
2023-04-05T04:50:03.465Z,60434.72
2023-04-05T04:52:32.357Z,60434.72
2023-04-05T04:54:59.968Z,60434.72
2023-04-05T04:57:27.589Z,60434.72
2023-04-05T04:59:55.199Z,60434.72
2023-04-05T05:02:24.768Z,60434.72
2023-04-05T05:04:52.412Z,60434.72
2023-04-05T05:07:20.032Z,60434.72
2023-04-05T05:09:52.398Z,60434.72
2023-04-05T05:12:21.081Z,60434.72
2023-04-05T05:14:48.618Z,60434.72
2023-04-05T05:17:16.242Z,60434.72
2023-04-05T05:19:43.803Z,60434.72
2023-04-05T05:22:11.380Z,60434.72
2023-04-05T05:24:38.915Z,60434.72
2023-04-05T05:27:07.861Z,60434.72
2023-04-05T05:29:35.623Z,60434.72
2023-04-05T05:32:03.230Z,60434.72
2023-04-05T05:34:30.986Z,60434.72
2023-04-05T05:36:58.606Z,60434.72
2023-04-05T05:39:26.258Z,60434.72
2023-04-05T05:41:53.895Z,60434.72
2023-04-05T05:44:22.858Z,97433.50
2023-04-05T05:46:50.437Z,97444.47
2023-04-05T05:49:18.151Z,97444.78
2023-04-05T05:51:45.752Z,97449.28
2023-04-05T05:54:13.846Z,97450.78
2023-04-05T05:56:41.549Z,97453.03
2023-04-05T05:59:09.297Z,97455.28
2023-04-05T06:01:38.245Z,97456.38
2023-04-05T06:04:05.971Z,97452.31
2023-04-05T06:06:37.318Z,97448.38
2023-04-05T06:09:05.521Z,97452.25
2023-04-05T06:11:34.198Z,97452.81
2023-04-05T06:14:01.789Z,97455.97
2023-04-05T06:16:30.838Z,97458.13
2023-04-05T06:18:59.751Z,97460.34
2023-04-05T06:21:27.377Z,97465.16
2023-04-05T06:23:55.213Z,97460.03
2023-04-05T06:26:27.124Z,97463.34
2023-04-05T06:28:55.321Z,97452.34
2023-04-05T06:31:27.615Z,97452.28
2023-04-05T06:33:55.235Z,97442.97
2023-04-05T06:36:25.538Z,97454.88
2023-04-05T06:38:54.913Z,97463.66
2023-04-05T06:41:22.518Z,97465.66
2023-04-05T06:43:50.114Z,97467.34
2023-04-05T06:46:17.726Z,97464.28
2023-04-05T06:48:47.640Z,97459.91
2023-04-05T06:51:15.641Z,97460.97
2023-04-05T06:53:44.891Z,97457.66
2023-04-05T06:56:12.712Z,97467.34
2023-04-05T06:58:40.548Z,97469.00
2023-04-05T07:01:08.189Z,97468.47
2023-04-05T07:03:36.171Z,97466.41
2023-04-05T07:06:04.354Z,97459.84
2023-04-05T07:08:33.191Z,97457.44
2023-04-05T07:11:02.125Z,97465.97
2023-04-05T07:13:29.740Z,97460.88
2023-04-05T07:16:01.473Z,97460.84
2023-04-05T07:18:30.025Z,97453.28
2023-04-05T07:21:01.769Z,97446.22
2023-04-05T07:23:29.637Z,97450.06
2023-04-05T07:26:04.381Z,97457.34
2023-04-05T07:28:32.818Z,97453.19
2023-04-05T07:31:00.384Z,97449.97
2023-04-05T07:33:28.175Z,97447.66
2023-04-05T07:35:56.759Z,97438.06
2023-04-05T07:38:24.724Z,97438.06
2023-04-05T07:40:52.696Z,97443.00
2023-04-05T07:43:21.703Z,97438.50
2023-04-05T07:45:49.504Z,97443.09
2023-04-05T07:48:17.077Z,97439.00
2023-04-05T07:50:47.665Z,97436.97
2023-04-05T07:53:15.654Z,97432.81
2023-04-05T07:55:44.255Z,97446.66
2023-04-05T07:58:11.838Z,97443.09
2023-04-05T08:00:41.274Z,97431.22
2023-04-05T08:03:09.080Z,97429.16
2023-04-05T08:05:36.695Z,97431.63
2023-04-05T08:08:04.509Z,97441.34
2023-04-05T08:10:32.110Z,97420.66
2023-04-05T08:12:59.727Z,97438.16
2023-04-05T08:15:27.332Z,97441.22
2023-04-05T08:17:56.254Z,97438.03
2023-04-05T08:20:24.062Z,97444.75
2023-04-05T08:22:51.629Z,97446.22
2023-04-05T08:25:19.401Z,97430.88
2023-04-05T08:27:47.022Z,97427.50
2023-04-05T08:30:14.701Z,97426.59
2023-04-05T08:32:42.239Z,97429.34
2023-04-05T08:35:11.442Z,97430.91
2023-04-05T08:37:39.657Z,97426.03
2023-04-05T08:40:09.150Z,97430.28
2023-04-05T08:42:38.363Z,97422.84
2023-04-05T08:45:10.769Z,97428.84
2023-04-05T08:47:38.925Z,97425.91
2023-04-05T08:50:07.629Z,97422.09
2023-04-05T08:52:37.954Z,97416.22
2023-04-05T08:55:06.657Z,97423.59
2023-04-05T08:57:35.839Z,97408.03
2023-04-05T09:00:04.704Z,97411.19
2023-04-05T09:02:33.808Z,97408.69
2023-04-05T09:05:01.726Z,97413.50
2023-04-05T09:07:31.271Z,97398.75
2023-04-05T09:10:01.785Z,97397.78
2023-04-05T09:12:29.445Z,97416.00
2023-04-05T09:14:57.081Z,97412.91
2023-04-05T09:17:24.899Z,97398.44
2023-04-05T09:19:52.929Z,97410.25
2023-04-05T09:22:20.598Z,97399.53
2023-04-05T09:24:48.400Z,97386.28
2023-04-05T09:27:19.306Z,97395.97
2023-04-05T09:29:48.646Z,97403.56
2023-04-05T09:32:18.344Z,97395.28
2023-04-05T09:34:46.437Z,97398.19
2023-04-05T09:37:15.842Z,97393.50
2023-04-05T09:39:44.142Z,97395.00
2023-04-05T09:42:13.145Z,97394.81
2023-04-05T09:44:55.052Z,97400.88
2023-04-05T09:47:23.333Z,97371.41
2023-04-05T09:49:51.074Z,97372.75
2023-04-05T09:52:23.208Z,97384.38
2023-04-05T09:54:53.018Z,97391.28
2023-04-05T09:57:20.663Z,97386.69
2023-04-05T09:59:48.705Z,97389.72
2023-04-05T10:02:18.031Z,97369.66
2023-04-05T10:04:48.347Z,97386.94
2023-04-05T10:07:17.013Z,97381.97
2023-04-05T10:09:46.102Z,97382.63
2023-04-05T10:12:26.770Z,97380.72
2023-04-05T10:14:54.375Z,97385.50
2023-04-05T10:17:26.435Z,97383.41
2023-04-05T10:20:00.669Z,97379.97
2023-04-05T10:22:31.331Z,97370.56
2023-04-05T10:25:03.242Z,97374.56
2023-04-05T10:27:32.338Z,97376.50
2023-04-05T10:30:06.427Z,97376.41
2023-04-05T10:32:48.121Z,97372.13
2023-04-05T10:35:18.520Z,97367.38
2023-04-05T10:37:55.707Z,97359.63
2023-04-05T10:40:23.401Z,97368.84
2023-04-05T10:42:51.177Z,97363.81
2023-04-05T10:45:22.494Z,97368.22
2023-04-05T10:47:56.309Z,97367.59
2023-04-05T10:50:25.350Z,97363.25
2023-04-05T10:52:53.732Z,97354.19
2023-04-05T10:55:22.409Z,97365.56
2023-04-05T10:57:50.785Z,97354.84
2023-04-05T11:00:20.084Z,97354.44
2023-04-05T11:02:48.615Z,97357.41
2023-04-05T11:05:34.793Z,97355.09
2023-04-05T11:08:05.534Z,97358.03
2023-04-05T11:10:35.687Z,97358.25
2023-04-05T11:13:08.156Z,97345.25
2023-04-05T11:15:36.580Z,97351.13
2023-04-05T11:18:09.456Z,97345.28
2023-04-05T11:20:51.470Z,97340.47
2023-04-05T11:23:20.644Z,97345.81
2023-04-05T11:25:51.574Z,97339.03
2023-04-05T11:28:26.981Z,97339.50
2023-04-05T11:30:57.090Z,97334.31
2023-04-05T11:33:42.188Z,97329.50
2023-04-05T11:36:11.495Z,97329.59
2023-04-05T11:38:40.876Z,97325.84
2023-04-05T11:41:13.346Z,97329.91
2023-04-05T11:43:42.717Z,97310.00
2023-04-05T11:46:10.409Z,97328.88
2023-04-05T11:48:38.154Z,97324.69
2023-04-05T11:51:10.404Z,97325.56
2023-04-05T11:53:39.806Z,97319.94
2023-04-05T11:56:08.895Z,97327.31
2023-04-05T11:58:37.030Z,97313.06
2023-04-05T12:01:06.997Z,97313.69
2023-04-05T12:03:35.976Z,97320.97
2023-04-05T12:06:05.329Z,97321.63
2023-04-05T12:08:42.160Z,97305.31
2023-04-05T12:11:12.199Z,97309.34
2023-04-05T12:13:40.226Z,97313.56
2023-04-05T12:16:09.662Z,97314.03
2023-04-05T12:18:39.073Z,97303.41
2023-04-05T12:21:08.569Z,97289.91
2023-04-05T12:23:37.114Z,97303.34
2023-04-05T12:26:07.748Z,97302.69
2023-04-05T12:28:52.513Z,97295.59
2023-04-05T12:31:36.191Z,97298.59
2023-04-05T12:34:03.892Z,97306.78
2023-04-05T12:36:32.439Z,97294.25
2023-04-05T12:39:00.496Z,97288.81
2023-04-05T12:41:30.725Z,97292.69
2023-04-05T12:44:01.768Z,97281.19
2023-04-05T12:46:40.401Z,97286.28
2023-04-05T12:49:08.390Z,97275.00
2023-04-05T12:51:36.276Z,97273.16
2023-04-05T12:54:04.343Z,97272.63
2023-04-05T12:56:33.497Z,97263.44
2023-04-05T12:59:01.208Z,97273.56
2023-04-05T13:01:28.906Z,97272.78
2023-04-05T13:04:08.549Z,97264.16
2023-04-05T13:06:42.906Z,97260.78
2023-04-05T13:09:10.514Z,97255.56
2023-04-05T13:11:39.589Z,97256.72
2023-04-05T13:14:07.202Z,97252.03
2023-04-05T13:16:34.951Z,97261.06
2023-04-05T13:19:02.643Z,97256.69
2023-04-05T13:21:30.917Z,97258.75
2023-04-05T13:23:58.667Z,97246.91
2023-04-05T13:26:26.305Z,97251.50
2023-04-05T13:28:55.548Z,97247.44
2023-04-05T13:31:23.881Z,97251.81
2023-04-05T13:33:51.828Z,97228.19
2023-04-05T13:36:19.406Z,97239.09
2023-04-05T13:38:46.958Z,97232.09
2023-04-05T13:41:16.013Z,97236.91
2023-04-05T13:43:43.637Z,97238.53
2023-04-05T13:46:12.606Z,97220.50
2023-04-05T13:48:40.201Z,97220.44
2023-04-05T13:51:07.881Z,97215.59
2023-04-05T13:53:35.424Z,97224.03
2023-04-05T13:56:03.746Z,97218.75
2023-04-05T13:58:31.342Z,97225.22
2023-04-05T14:00:58.944Z,97221.28
2023-04-05T14:03:27.937Z,97214.78
2023-04-05T14:05:56.838Z,97217.00
2023-04-05T14:08:24.879Z,97213.03
2023-04-05T14:10:52.831Z,97211.22
2023-04-05T14:13:20.369Z,97204.94
2023-04-05T14:15:48.054Z,97210.75
2023-04-05T14:18:15.715Z,97203.03
2023-04-05T14:20:44.862Z,97206.38
2023-04-05T14:23:12.442Z,97204.47
2023-04-05T14:25:40.177Z,97195.69
2023-04-05T14:28:07.928Z,97195.38
2023-04-05T14:30:35.535Z,97192.41
2023-04-05T14:33:03.281Z,97189.88
2023-04-05T14:35:30.880Z,97183.81
2023-04-05T14:38:00.059Z,97188.50
2023-04-05T14:40:27.672Z,97182.78
2023-04-05T14:42:55.235Z,97197.09
2023-04-05T14:45:23.375Z,97187.25
2023-04-05T14:47:51.176Z,97187.09
2023-04-05T14:50:18.821Z,97192.53
2023-04-05T14:52:46.551Z,97190.53
2023-04-05T14:55:16.492Z,97192.44
2023-04-05T14:57:44.247Z,97189.59
2023-04-05T15:00:12.969Z,97193.75
2023-04-05T15:02:40.987Z,97189.19
2023-04-05T15:05:09.840Z,97185.91
2023-04-05T15:07:37.373Z,97184.72
2023-04-05T15:10:05.746Z,97190.00
2023-04-05T15:12:34.742Z,97186.25
2023-04-05T15:15:02.492Z,97172.72
2023-04-05T15:17:30.109Z,97184.56
2023-04-05T15:19:57.766Z,97187.72
2023-04-05T15:22:25.433Z,97183.06
2023-04-05T15:24:53.035Z,97176.13
2023-04-05T15:27:21.103Z,97172.59
2023-04-05T15:29:50.028Z,97178.72
2023-04-05T15:32:17.678Z,97176.47
2023-04-05T15:34:46.055Z,97181.31
2023-04-05T15:37:13.855Z,97174.25
2023-04-05T15:39:41.415Z,97183.75
2023-04-05T15:42:09.102Z,97180.16
2023-04-05T15:44:36.703Z,97189.84
2023-04-05T15:47:05.817Z,97192.16
2023-04-05T15:49:33.488Z,97175.47
2023-04-05T15:52:01.112Z,97172.19
2023-04-05T15:54:28.665Z,97185.91
2023-04-05T15:56:56.919Z,97184.34
2023-04-05T15:59:24.791Z,97174.19
2023-04-05T16:01:52.523Z,97168.13
2023-04-05T16:04:21.575Z,97176.28
2023-04-05T16:06:49.221Z,97159.25
2023-04-05T16:09:16.961Z,97170.34
2023-04-05T16:11:44.561Z,97166.84
2023-04-05T16:14:12.136Z,97184.56
2023-04-05T16:16:50.603Z,97180.38
2023-04-05T16:19:22.989Z,97162.78
2023-04-05T16:21:50.646Z,97168.97
2023-04-05T16:24:18.218Z,97171.72
2023-04-05T16:26:45.800Z,97169.84
2023-04-05T16:29:14.152Z,97165.72
2023-04-05T16:31:47.018Z,97168.41
2023-04-05T16:34:14.768Z,97179.31
2023-04-05T16:36:43.829Z,97178.84
2023-04-05T16:39:11.462Z,97183.88
2023-04-05T16:41:39.054Z,97180.50
2023-04-05T16:44:06.615Z,97177.38
2023-04-05T16:46:34.269Z,97180.47
2023-04-05T16:49:02.087Z,97178.88
2023-04-05T16:51:29.922Z,97183.75
2023-04-05T16:53:58.876Z,97178.25
2023-04-05T16:56:26.685Z,97174.97
2023-04-05T16:58:55.104Z,97172.53
2023-04-05T17:01:22.819Z,97186.06
2023-04-05T17:03:50.468Z,97177.00
2023-04-05T17:06:18.045Z,97172.19
2023-04-05T17:08:45.633Z,97184.06
2023-04-05T17:11:14.659Z,97179.81
2023-04-05T17:13:44.923Z,97189.50
2023-04-05T17:16:13.205Z,97183.16
2023-04-05T17:18:41.305Z,97190.38
2023-04-05T17:21:09.072Z,97182.69
2023-04-05T17:23:36.666Z,97191.66
2023-04-05T17:26:04.401Z,97196.94
2023-04-05T17:28:34.650Z,97190.03
2023-04-05T17:31:03.003Z,97186.44
2023-04-05T17:33:30.946Z,97191.00
2023-04-05T17:35:58.836Z,97189.75
2023-04-05T17:38:27.788Z,97193.22
2023-04-05T17:40:57.264Z,97189.19
2023-04-05T17:43:25.025Z,97192.38
2023-04-05T17:45:55.330Z,97194.56
2023-04-05T17:48:23.082Z,97197.72
2023-04-05T17:50:50.714Z,97192.88
2023-04-05T17:53:18.262Z,97196.03
2023-04-05T17:55:45.832Z,97198.88
2023-04-05T17:58:13.393Z,97196.09
2023-04-05T18:00:40.958Z,97203.91
2023-04-05T18:03:09.865Z,97206.59
2023-04-05T18:05:37.551Z,97205.41
2023-04-05T18:08:05.113Z,97208.09
2023-04-05T18:10:32.716Z,97212.69
2023-04-05T18:13:00.219Z,97212.50
2023-04-05T18:15:27.924Z,97221.69
2023-04-05T18:17:55.497Z,97224.16
2023-04-05T18:20:24.453Z,97223.19
2023-04-05T18:22:52.079Z,97216.97
2023-04-05T18:25:21.574Z,97226.25
2023-04-05T18:27:50.738Z,97206.16
2023-04-05T18:30:18.346Z,97221.72
2023-04-05T18:32:46.805Z,97231.31
2023-04-05T18:35:14.465Z,97233.59
2023-04-05T18:37:43.421Z,97233.38
2023-04-05T18:40:11.574Z,97230.91
2023-04-05T18:42:39.938Z,97236.19
2023-04-05T18:45:08.000Z,97240.34
2023-04-05T18:47:36.605Z,97211.00
2023-04-05T18:50:04.525Z,97234.53
2023-04-05T18:52:34.404Z,97241.66
2023-04-05T18:55:03.757Z,97243.94
2023-04-05T18:57:31.302Z,97250.69
2023-04-05T18:59:58.952Z,97249.00
2023-04-05T19:02:26.724Z,97234.44
2023-04-05T19:04:55.581Z,97254.16
2023-04-05T19:07:23.273Z,97265.25
2023-04-05T19:09:50.832Z,97255.59
2023-04-05T19:12:19.831Z,97254.84
2023-04-05T19:14:48.113Z,97255.81
2023-04-05T19:17:15.704Z,97263.31
2023-04-05T19:19:43.387Z,97270.69
2023-04-05T19:22:11.283Z,97266.41
2023-04-05T19:24:40.719Z,97271.53
2023-04-05T19:27:08.271Z,97266.09
2023-04-05T19:29:37.805Z,97273.19
2023-04-05T19:32:05.621Z,97267.91
2023-04-05T19:34:33.223Z,97269.44
2023-04-05T19:37:01.288Z,97270.38
2023-04-05T19:39:29.347Z,97266.00
2023-04-05T19:41:57.704Z,97254.09
2023-04-05T19:44:42.696Z,97261.88
2023-04-05T19:47:11.274Z,97257.25
2023-04-05T19:49:42.940Z,97263.56
2023-04-05T19:52:12.995Z,97263.06
2023-04-05T19:54:40.705Z,97271.72
2023-04-05T19:57:09.739Z,97261.88
2023-04-05T19:59:38.807Z,97265.69
2023-04-05T20:02:22.124Z,97266.28
2023-04-05T20:04:49.827Z,97254.94
2023-04-05T20:07:17.409Z,97255.03
2023-04-05T20:09:45.542Z,97251.16
2023-04-05T20:12:15.753Z,97254.91
2023-04-05T20:14:47.944Z,97256.59
2023-04-05T20:17:19.291Z,97263.34
2023-04-05T20:19:56.305Z,97264.78
2023-04-05T20:22:24.038Z,97263.69
2023-04-05T20:24:53.633Z,97259.31
2023-04-05T20:27:21.169Z,97248.44
2023-04-05T20:29:50.173Z,97262.41
2023-04-05T20:32:18.092Z,97255.53
2023-04-05T20:34:46.106Z,97250.69
2023-04-05T20:37:13.759Z,97251.75
2023-04-05T20:39:41.587Z,97232.81
2023-04-05T20:42:09.862Z,97249.38
2023-04-05T20:44:37.760Z,97249.72
2023-04-05T20:47:06.801Z,97254.97
2023-04-05T20:49:34.481Z,97254.00
2023-04-05T20:52:07.512Z,97253.28
2023-04-05T20:54:35.592Z,97257.66
2023-04-05T20:57:03.251Z,97252.34
2023-04-05T20:59:31.527Z,97240.13
2023-04-05T21:01:59.142Z,97259.00
2023-04-05T21:04:29.974Z,97241.56
2023-04-05T21:06:58.134Z,97257.19
2023-04-05T21:09:25.802Z,97252.59
2023-04-05T21:11:53.344Z,97256.72
2023-04-05T21:14:20.996Z,97256.25
2023-04-05T21:16:48.533Z,97249.59
2023-04-05T21:19:16.074Z,97264.25
2023-04-05T21:21:44.977Z,97267.09
2023-04-05T21:24:12.527Z,97266.06
2023-04-05T21:26:40.270Z,97270.34
2023-04-05T21:29:08.005Z,97270.00
2023-04-05T21:31:36.002Z,97277.25
2023-04-05T21:34:03.577Z,97268.78
2023-04-05T21:36:31.130Z,97278.69
2023-04-05T21:39:00.008Z,97270.69
2023-04-05T21:41:27.672Z,97272.28
2023-04-05T21:43:55.281Z,97269.38
2023-04-05T21:46:22.869Z,60434.72
2023-04-05T21:48:50.452Z,97266.66
2023-04-05T21:51:18.347Z,97268.03
2023-04-05T21:53:46.230Z,97261.06
2023-04-05T21:56:19.035Z,97268.16
2023-04-05T21:58:46.632Z,97274.38
2023-04-05T22:01:14.521Z,97260.53
2023-04-05T22:03:42.193Z,97265.00
2023-04-05T22:06:09.798Z,97243.72
2023-04-05T22:08:37.461Z,97268.22
2023-04-05T22:11:05.186Z,97259.94
2023-04-05T22:13:36.554Z,97260.22
2023-04-05T22:16:04.179Z,97269.69
2023-04-05T22:18:31.859Z,97269.38
2023-04-05T22:20:59.398Z,97275.72
2023-04-05T22:23:26.975Z,97276.75
2023-04-05T22:25:54.643Z,97270.94
2023-04-05T22:28:23.624Z,97272.88
2023-04-05T22:30:52.546Z,97271.34
2023-04-05T22:33:20.238Z,97269.78
2023-04-05T22:35:47.918Z,97277.69
2023-04-05T22:38:15.557Z,97268.31
2023-04-05T22:40:45.214Z,97267.59
2023-04-05T22:43:12.827Z,97274.75
2023-04-05T22:45:40.473Z,97271.41
2023-04-05T22:48:09.904Z,97271.09
2023-04-05T22:50:37.455Z,97253.94
2023-04-05T22:53:05.042Z,97271.50
2023-04-05T22:55:32.606Z,97270.25
2023-04-05T22:58:00.417Z,97269.00
2023-04-05T23:00:28.154Z,97269.19
2023-04-05T23:02:55.916Z,97257.75
2023-04-05T23:05:25.078Z,97267.94
2023-04-05T23:07:52.669Z,97257.34
2023-04-05T23:10:21.393Z,97273.13
2023-04-05T23:12:49.297Z,97272.09
2023-04-05T23:15:17.065Z,97269.59
2023-04-05T23:17:44.703Z,97264.59
2023-04-05T23:20:12.836Z,97270.72
2023-04-05T23:22:41.728Z,97283.09
2023-04-05T23:25:10.279Z,97273.06
2023-04-05T23:27:37.838Z,97270.69
2023-04-05T23:30:06.725Z,97266.75
2023-04-05T23:32:34.435Z,97260.16
2023-04-05T23:35:02.027Z,97252.25
2023-04-05T23:37:29.598Z,97266.47
2023-04-05T23:39:58.590Z,97261.69
2023-04-05T23:42:26.245Z,97266.34
2023-04-05T23:44:53.816Z,97262.38
2023-04-05T23:47:21.790Z,97266.81
2023-04-05T23:49:49.397Z,97258.59
2023-04-05T23:52:17.009Z,97261.69
2023-04-05T23:54:44.785Z,97264.44
2023-04-05T23:57:13.982Z,97262.78
2023-04-05T23:59:41.884Z,97265.13
